sensor_id;sensor_type;location;lat;lon;timestamp;pressure;altitude;pressure_sealevel;temperature;humidity
2178;BME280;1095;50.992;6.798;2022-12-13T00:02:03;100549.66;;;-5.08;100.00
2178;BME280;1095;50.992;6.798;2022-12-13T00:04:29;100548.78;;;-5.07;100.00
2178;BME280;1095;50.992;6.798;2022-12-13T00:06:57;100550.59;;;-5.10;100.00
2178;BME280;1095;50.992;6.798;2022-12-13T00:09:24;100549.78;;;-5.11;100.00
2178;BME280;1095;50.992;6.798;2022-12-13T00:11:51;100550.72;;;-5.13;100.00
2178;BME280;1095;50.992;6.798;2022-12-13T00:14:19;100548.13;;;-5.12;100.00
2178;BME280;1095;50.992;6.798;2022-12-13T00:16:49;100551.66;;;-5.16;100.00
2178;BME280;1095;50.992;6.798;2022-12-13T00:19:18;100553.38;;;-5.16;100.00
2178;BME280;1095;50.992;6.798;2022-12-13T00:21:45;100541.47;;;-5.16;100.00
2178;BME280;1095;50.992;6.798;2022-12-13T00:24:17;100546.41;;;-5.11;100.00
2178;BME280;1095;50.992;6.798;2022-12-13T00:26:44;100548.00;;;-5.09;100.00
2178;BME280;1095;50.992;6.798;2022-12-13T00:29:11;100548.81;;;-5.08;100.00
2178;BME280;1095;50.992;6.798;2022-12-13T00:31:38;100545.50;;;-5.10;100.00
2178;BME280;1095;50.992;6.798;2022-12-13T00:34:05;100554.88;;;-5.11;100.00
2178;BME280;1095;50.992;6.798;2022-12-13T00:36:31;100554.88;;;-5.11;100.00
2178;BME280;1095;50.992;6.798;2022-12-13T00:38:58;100560.94;;;-5.13;100.00
2178;BME280;1095;50.992;6.798;2022-12-13T00:41:31;100557.59;;;-5.15;100.00
2178;BME280;1095;50.992;6.798;2022-12-13T00:43:58;100547.44;;;-5.17;100.00
2178;BME280;1095;50.992;6.798;2022-12-13T00:46:26;100554.88;;;-5.11;100.00
2178;BME280;1095;50.992;6.798;2022-12-13T00:48:54;100557.97;;;-5.03;100.00
2178;BME280;1095;50.992;6.798;2022-12-13T00:51:22;100554.75;;;-5.08;100.00
2178;BME280;1095;50.992;6.798;2022-12-13T00:53:49;100549.88;;;-5.14;100.00
2178;BME280;1095;50.992;6.798;2022-12-13T00:56:18;100540.06;;;-5.23;100.00
2178;BME280;1095;50.992;6.798;2022-12-13T00:58:48;100546.69;;;-5.19;100.00
2178;BME280;1095;50.992;6.798;2022-12-13T01:01:16;100552.09;;;-5.26;100.00
2178;BME280;1095;50.992;6.798;2022-12-13T01:03:44;100543.50;;;-5.24;100.00
2178;BME280;1095;50.992;6.798;2022-12-13T01:06:12;100547.94;;;-5.29;100.00
2178;BME280;1095;50.992;6.798;2022-12-13T01:08:39;100553.09;;;-5.30;100.00
2178;BME280;1095;50.992;6.798;2022-12-13T01:11:07;100553.94;;;-5.30;100.00
2178;BME280;1095;50.992;6.798;2022-12-13T01:13:34;100545.28;;;-5.26;100.00
2178;BME280;1095;50.992;6.798;2022-12-13T01:16:07;100544.84;;;-5.15;100.00
2178;BME280;1095;50.992;6.798;2022-12-13T01:18:34;100550.97;;;-4.97;100.00
2178;BME280;1095;50.992;6.798;2022-12-13T01:21:03;100551.81;;;-4.97;100.00
2178;BME280;1095;50.992;6.798;2022-12-13T01:23:31;100546.94;;;-5.03;100.00
2178;BME280;1095;50.992;6.798;2022-12-13T01:26:01;100534.22;;;-5.05;100.00
2178;BME280;1095;50.992;6.798;2022-12-13T01:28:27;100546.88;;;-5.02;100.00
2178;BME280;1095;50.992;6.798;2022-12-13T01:30:55;100544.44;;;-5.05;100.00
2178;BME280;1095;50.992;6.798;2022-12-13T01:33:24;100538.69;;;-5.10;100.00
2178;BME280;1095;50.992;6.798;2022-12-13T01:35:50;100553.94;;;-5.08;100.00
2178;BME280;1095;50.992;6.798;2022-12-13T01:38:17;100546.69;;;-5.19;100.00
2178;BME280;1095;50.992;6.798;2022-12-13T01:40:45;100548.59;;;-5.24;100.00
2178;BME280;1095;50.992;6.798;2022-12-13T01:43:13;100554.59;;;-5.25;100.00
2178;BME280;1095;50.992;6.798;2022-12-13T01:45:40;100558.97;;;-5.28;100.00
2178;BME280;1095;50.992;6.798;2022-12-13T01:48:09;100555.72;;;-5.32;100.00
2178;BME280;1095;50.992;6.798;2022-12-13T01:50:42;100558.38;;;-5.13;100.00
2178;BME280;1095;50.992;6.798;2022-12-13T01:53:13;100553.44;;;-5.18;100.00
2178;BME280;1095;50.992;6.798;2022-12-13T01:55:42;100553.44;;;-5.18;100.00
2178;BME280;1095;50.992;6.798;2022-12-13T01:58:11;100551.94;;;-5.22;100.00
2178;BME280;1095;50.992;6.798;2022-12-13T02:03:06;100554.22;;;-5.38;100.00
2178;BME280;1095;50.992;6.798;2022-12-13T02:05:36;100549.19;;;-5.39;100.00
2178;BME280;1095;50.992;6.798;2022-12-13T02:08:07;100552.78;;;-5.45;100.00
2178;BME280;1095;50.992;6.798;2022-12-13T02:10:35;100555.22;;;-5.42;100.00
2178;BME280;1095;50.992;6.798;2022-12-13T02:13:02;100555.34;;;-5.45;100.00
2178;BME280;1095;50.992;6.798;2022-12-13T02:15:36;100551.94;;;-5.45;100.00
2178;BME280;1095;50.992;6.798;2022-12-13T02:21:07;100550.69;;;-5.57;100.00
2178;BME280;1095;50.992;6.798;2022-12-13T02:26:58;100550.31;;;-5.70;100.00
2178;BME280;1095;50.992;6.798;2022-12-13T02:29:55;100555.28;;;-5.67;100.00
2178;BME280;1095;50.992;6.798;2022-12-13T02:32:31;100557.19;;;-5.72;100.00
2178;BME280;1095;50.992;6.798;2022-12-13T02:35:04;100553.84;;;-5.74;100.00
2178;BME280;1095;50.992;6.798;2022-12-13T02:37:39;100553.84;;;-5.74;100.00
2178;BME280;1095;50.992;6.798;2022-12-13T02:40:14;100548.97;;;-5.80;100.00
2178;BME280;1095;50.992;6.798;2022-12-13T02:42:48;100554.19;;;-5.83;100.00
2178;BME280;1095;50.992;6.798;2022-12-13T02:45:20;100548.16;;;-5.80;100.00
2178;BME280;1095;50.992;6.798;2022-12-13T02:47:53;100549.13;;;-5.61;100.00
2178;BME280;1095;50.992;6.798;2022-12-13T02:50:22;100551.25;;;-5.72;100.00
2178;BME280;1095;50.992;6.798;2022-12-13T02:52:51;100544.50;;;-5.73;100.00
2178;BME280;1095;50.992;6.798;2022-12-13T02:55:18;100551.63;;;-5.59;100.00
2178;BME280;1095;50.992;6.798;2022-12-13T02:57:45;100543.44;;;-5.68;100.00
2178;BME280;1095;50.992;6.798;2022-12-13T03:00:15;100542.00;;;-5.75;100.00
2178;BME280;1095;50.992;6.798;2022-12-13T03:02:52;100535.25;;;-5.76;100.00
2178;BME280;1095;50.992;6.798;2022-12-13T03:05:29;100539.78;;;-5.84;100.00
2178;BME280;1095;50.992;6.798;2022-12-13T03:08:20;100532.25;;;-5.87;100.00
2178;BME280;1095;50.992;6.798;2022-12-13T03:10:55;100534.19;;;-5.93;100.00
2178;BME280;1095;50.992;6.798;2022-12-13T03:13:27;100536.50;;;-5.87;100.00
2178;BME280;1095;50.992;6.798;2022-12-13T03:16:08;100535.06;;;-5.71;100.00
2178;BME280;1095;50.992;6.798;2022-12-13T03:18:38;100535.81;;;-5.68;100.00
2178;BME280;1095;50.992;6.798;2022-12-13T03:21:07;100529.09;;;-5.70;100.00
2178;BME280;1095;50.992;6.798;2022-12-13T03:23:35;100534.78;;;-5.63;100.00
2178;BME280;1095;50.992;6.798;2022-12-13T03:26:06;100535.72;;;-5.66;100.00
2178;BME280;1095;50.992;6.798;2022-12-13T03:28:35;100534.53;;;-5.79;100.00
2178;BME280;1095;50.992;6.798;2022-12-13T03:31:02;100532.06;;;-5.82;100.00
2178;BME280;1095;50.992;6.798;2022-12-13T03:33:28;100530.97;;;-5.75;100.00
2178;BME280;1095;50.992;6.798;2022-12-13T03:35:57;100537.28;;;-5.85;100.00
2178;BME280;1095;50.992;6.798;2022-12-13T03:38:24;100546.22;;;-5.74;100.00
2178;BME280;1095;50.992;6.798;2022-12-13T03:40:53;100539.41;;;-5.73;100.00
2178;BME280;1095;50.992;6.798;2022-12-13T03:43:21;100537.00;;;-5.78;100.00
2178;BME280;1095;50.992;6.798;2022-12-13T03:45:48;100534.34;;;-5.75;100.00
2178;BME280;1095;50.992;6.798;2022-12-13T03:48:14;100529.47;;;-5.81;100.00
2178;BME280;1095;50.992;6.798;2022-12-13T03:50:41;100532.69;;;-5.76;100.00
2178;BME280;1095;50.992;6.798;2022-12-13T03:53:13;100527.69;;;-5.79;100.00
2178;BME280;1095;50.992;6.798;2022-12-13T03:55:39;100530.16;;;-5.76;100.00
2178;BME280;1095;50.992;6.798;2022-12-13T03:58:06;100527.03;;;-5.84;100.00
2178;BME280;1095;50.992;6.798;2022-12-13T04:00:32;100521.94;;;-5.84;100.00
2178;BME280;1095;50.992;6.798;2022-12-13T04:02:59;100528.66;;;-5.81;100.00
2178;BME280;1095;50.992;6.798;2022-12-13T04:05:25;100523.28;;;-5.74;100.00
2178;BME280;1095;50.992;6.798;2022-12-13T04:07:53;100519.00;;;-5.73;100.00
2178;BME280;1095;50.992;6.798;2022-12-13T04:10:20;100514.03;;;-5.76;100.00
2178;BME280;1095;50.992;6.798;2022-12-13T04:12:47;100515.06;;;-5.82;100.00
2178;BME280;1095;50.992;6.798;2022-12-13T04:15:31;100515.00;;;-5.80;100.00
2178;BME280;1095;50.992;6.798;2022-12-13T04:17:58;100505.31;;;-5.71;100.00
2178;BME280;1095;50.992;6.798;2022-12-13T04:20:24;100506.09;;;-5.69;100.00
2178;BME280;1095;50.992;6.798;2022-12-13T04:22:51;100502.53;;;-5.64;100.00
2178;BME280;1095;50.992;6.798;2022-12-13T04:25:18;100498.31;;;-5.65;100.00
2178;BME280;1095;50.992;6.798;2022-12-13T04:27:46;100495.69;;;-5.64;100.00
2178;BME280;1095;50.992;6.798;2022-12-13T04:30:12;100495.91;;;-5.69;100.00
2178;BME280;1095;50.992;6.798;2022-12-13T04:32:39;100495.13;;;-5.71;100.00
2178;BME280;1095;50.992;6.798;2022-12-13T04:35:06;100492.03;;;-5.79;100.00
2178;BME280;1095;50.992;6.798;2022-12-13T04:37:33;100496.91;;;-5.73;100.00
2178;BME280;1095;50.992;6.798;2022-12-13T04:40:00;100493.91;;;-5.84;100.00
2178;BME280;1095;50.992;6.798;2022-12-13T04:42:28;100500.72;;;-5.84;100.00
2178;BME280;1095;50.992;6.798;2022-12-13T04:44:56;100492.91;;;-5.80;100.00
2178;BME280;1095;50.992;6.798;2022-12-13T04:47:22;100482.59;;;-5.77;100.00
2178;BME280;1095;50.992;6.798;2022-12-13T04:49:49;100487.69;;;-5.77;100.00
2178;BME280;1095;50.992;6.798;2022-12-13T04:52:15;100491.75;;;-5.71;100.00
2178;BME280;1095;50.992;6.798;2022-12-13T04:54:42;100482.44;;;-5.72;100.00
2178;BME280;1095;50.992;6.798;2022-12-13T04:57:10;100478.34;;;-5.76;100.00
2178;BME280;1095;50.992;6.798;2022-12-13T04:59:37;100483.28;;;-5.72;100.00
2178;BME280;1095;50.992;6.798;2022-12-13T05:02:06;100474.91;;;-5.75;100.00
2178;BME280;1095;50.992;6.798;2022-12-13T05:04:33;100464.72;;;-5.75;100.00
2178;BME280;1095;50.992;6.798;2022-12-13T05:07:00;100463.16;;;-5.79;100.00
2178;BME280;1095;50.992;6.798;2022-12-13T05:09:27;100470.13;;;-5.84;100.00
2178;BME280;1095;50.992;6.798;2022-12-13T05:11:54;100459.38;;;-5.91;100.00
2178;BME280;1095;50.992;6.798;2022-12-13T05:14:21;100466.97;;;-5.89;100.00
2178;BME280;1095;50.992;6.798;2022-12-13T05:16:47;100472.94;;;-5.90;100.00
2178;BME280;1095;50.992;6.798;2022-12-13T05:19:15;100472.28;;;-5.95;100.00
2178;BME280;1095;50.992;6.798;2022-12-13T05:21:42;100473.22;;;-5.98;100.00
2178;BME280;1095;50.992;6.798;2022-12-13T05:24:09;100474.88;;;-5.97;100.00
2178;BME280;1095;50.992;6.798;2022-12-13T05:26:35;100466.34;;;-5.96;100.00
2178;BME280;1095;50.992;6.798;2022-12-13T05:29:02;100468.69;;;-5.90;100.00
2178;BME280;1095;50.992;6.798;2022-12-13T05:31:29;100471.91;;;-5.86;100.00
2178;BME280;1095;50.992;6.798;2022-12-13T05:33:55;100462.56;;;-5.86;100.00
2178;BME280;1095;50.992;6.798;2022-12-13T05:36:24;100475.06;;;-5.80;100.00
2178;BME280;1095;50.992;6.798;2022-12-13T05:38:50;100467.53;;;-5.83;100.00
2178;BME280;1095;50.992;6.798;2022-12-13T05:41:19;100457.34;;;-5.83;100.00
2178;BME280;1095;50.992;6.798;2022-12-13T05:43:47;100466.75;;;-5.85;100.00
2178;BME280;1095;50.992;6.798;2022-12-13T05:46:14;100474.28;;;-5.82;100.00
2178;BME280;1095;50.992;6.798;2022-12-13T05:48:41;100470.97;;;-5.84;100.00
2178;BME280;1095;50.992;6.798;2022-12-13T05:51:08;100465.00;;;-5.83;100.00
2178;BME280;1095;50.992;6.798;2022-12-13T05:53:37;100461.78;;;-5.88;100.00
2178;BME280;1095;50.992;6.798;2022-12-13T05:56:04;100467.13;;;-5.94;100.00
2178;BME280;1095;50.992;6.798;2022-12-13T05:58:31;100470.44;;;-5.92;100.00
2178;BME280;1095;50.992;6.798;2022-12-13T06:01:03;100460.19;;;-5.90;100.00
2178;BME280;1095;50.992;6.798;2022-12-13T06:03:30;100456.06;;;-5.93;100.00
2178;BME280;1095;50.992;6.798;2022-12-13T06:05:59;100459.69;;;-6.00;100.00
2178;BME280;1095;50.992;6.798;2022-12-13T06:08:26;100458.97;;;-6.04;100.00
2178;BME280;1095;50.992;6.798;2022-12-13T06:10:55;100462.56;;;-6.09;100.00
2178;BME280;1095;50.992;6.798;2022-12-13T06:13:22;100467.47;;;-6.03;100.00
2178;BME280;1095;50.992;6.798;2022-12-13T06:15:49;100469.34;;;-6.08;100.00
2178;BME280;1095;50.992;6.798;2022-12-13T06:18:16;100473.59;;;-6.09;100.00
2178;BME280;1095;50.992;6.798;2022-12-13T06:20:43;100462.75;;;-6.14;100.00
2178;BME280;1095;50.992;6.798;2022-12-13T06:23:10;100463.47;;;-6.10;100.00
2178;BME280;1095;50.992;6.798;2022-12-13T06:25:37;100461.59;;;-6.05;100.00
2178;BME280;1095;50.992;6.798;2022-12-13T06:28:05;100462.25;;;-6.00;100.00
2178;BME280;1095;50.992;6.798;2022-12-13T06:30:32;100469.69;;;-5.94;100.00
2178;BME280;1095;50.992;6.798;2022-12-13T06:32:59;100462.03;;;-5.94;100.00
2178;BME280;1095;50.992;6.798;2022-12-13T06:35:27;100462.69;;;-5.89;100.00
2178;BME280;1095;50.992;6.798;2022-12-13T06:37:53;100465.09;;;-5.86;100.00
2178;BME280;1095;50.992;6.798;2022-12-13T06:40:20;100455.09;;;-5.90;100.00
2178;BME280;1095;50.992;6.798;2022-12-13T06:42:47;100461.78;;;-5.88;100.00
2178;BME280;1095;50.992;6.798;2022-12-13T06:45:15;100463.81;;;-5.96;100.00
2178;BME280;1095;50.992;6.798;2022-12-13T06:47:41;100469.78;;;-5.97;100.00
2178;BME280;1095;50.992;6.798;2022-12-13T06:50:08;100466.28;;;-5.94;100.00
2178;BME280;1095;50.992;6.798;2022-12-13T06:52:35;100462.19;;;-5.98;100.00
2178;BME280;1095;50.992;6.798;2022-12-13T06:55:02;100459.81;;;-6.03;100.00
2178;BME280;1095;50.992;6.798;2022-12-13T06:57:31;100463.13;;;-6.01;100.00
2178;BME280;1095;50.992;6.798;2022-12-13T06:59:58;100458.66;;;-5.94;100.00
2178;BME280;1095;50.992;6.798;2022-12-13T07:02:26;100461.19;;;-5.94;100.00
2178;BME280;1095;50.992;6.798;2022-12-13T07:04:53;100455.72;;;-6.07;100.00
2178;BME280;1095;50.992;6.798;2022-12-13T07:07:20;100450.84;;;-5.90;100.00
2178;BME280;1095;50.992;6.798;2022-12-13T07:09:47;100457.13;;;-5.77;100.00
2178;BME280;1095;50.992;6.798;2022-12-13T07:12:13;100460.50;;;-5.76;100.00
2178;BME280;1095;50.992;6.798;2022-12-13T07:14:40;100462.06;;;-5.72;100.00
2178;BME280;1095;50.992;6.798;2022-12-13T07:17:07;100467.31;;;-5.77;100.00
2178;BME280;1095;50.992;6.798;2022-12-13T07:19:36;100464.00;;;-5.79;100.00
2178;BME280;1095;50.992;6.798;2022-12-13T07:22:03;100458.78;;;-5.76;100.00
2178;BME280;1095;50.992;6.798;2022-12-13T07:24:30;100454.28;;;-5.69;100.00
2178;BME280;1095;50.992;6.798;2022-12-13T07:26:57;100458.72;;;-5.74;100.00
2178;BME280;1095;50.992;6.798;2022-12-13T07:29:25;100459.25;;;-5.66;100.00
2178;BME280;1095;50.992;6.798;2022-12-13T07:31:51;100454.97;;;-5.65;100.00
2178;BME280;1095;50.992;6.798;2022-12-13T07:34:18;100446.66;;;-5.69;100.00
2178;BME280;1095;50.992;6.798;2022-12-13T07:36:48;100463.41;;;-5.63;100.00
2178;BME280;1095;50.992;6.798;2022-12-13T07:39:15;100453.97;;;-5.61;100.00
2178;BME280;1095;50.992;6.798;2022-12-13T07:41:42;100461.50;;;-5.58;100.00
2178;BME280;1095;50.992;6.798;2022-12-13T07:44:08;100459.50;;;-5.50;100.00
2178;BME280;1095;50.992;6.798;2022-12-13T07:46:35;100450.38;;;-5.34;100.00
2178;BME280;1095;50.992;6.798;2022-12-13T07:49:02;100454.53;;;-5.31;100.00
2178;BME280;1095;50.992;6.798;2022-12-13T07:51:31;100448.84;;;-5.38;100.00
2178;BME280;1095;50.992;6.798;2022-12-13T07:54:00;100454.75;;;-5.38;100.00
2178;BME280;1095;50.992;6.798;2022-12-13T07:56:26;100456.47;;;-5.38;100.00
2178;BME280;1095;50.992;6.798;2022-12-13T07:58:53;100436.84;;;-5.36;100.00
2178;BME280;1095;50.992;6.798;2022-12-13T08:01:20;100446.94;;;-5.33;100.00
2178;BME280;1095;50.992;6.798;2022-12-13T08:03:47;100454.41;;;-5.28;100.00
2178;BME280;1095;50.992;6.798;2022-12-13T08:06:14;100447.59;;;-5.28;100.00
2178;BME280;1095;50.992;6.798;2022-12-13T08:08:43;100458.78;;;-5.32;100.00
2178;BME280;1095;50.992;6.798;2022-12-13T08:11:13;100462.28;;;-5.35;100.00
2178;BME280;1095;50.992;6.798;2022-12-13T08:13:41;100457.25;;;-5.36;100.00
2178;BME280;1095;50.992;6.798;2022-12-13T08:16:10;100462.41;;;-5.38;100.00
2178;BME280;1095;50.992;6.798;2022-12-13T08:18:38;100457.38;;;-5.39;100.00
2178;BME280;1095;50.992;6.798;2022-12-13T08:21:06;100473.38;;;-5.36;100.00
2178;BME280;1095;50.992;6.798;2022-12-13T08:23:35;100467.56;;;-5.39;100.00
2178;BME280;1095;50.992;6.798;2022-12-13T08:26:04;100472.50;;;-5.35;100.00
2178;BME280;1095;50.992;6.798;2022-12-13T08:28:33;100474.81;;;-5.28;100.00
2178;BME280;1095;50.992;6.798;2022-12-13T08:31:02;100484.97;;;-5.27;100.00
2178;BME280;1095;50.992;6.798;2022-12-13T08:33:29;100482.28;;;-5.24;100.00
2178;BME280;1095;50.992;6.798;2022-12-13T08:35:56;100482.16;;;-5.21;100.00
2178;BME280;1095;50.992;6.798;2022-12-13T08:38:23;100484.56;;;-5.18;100.00
2178;BME280;1095;50.992;6.798;2022-12-13T08:40:49;100471.63;;;-5.13;100.00
2178;BME280;1095;50.992;6.798;2022-12-13T08:43:16;100471.47;;;-5.09;100.00
2178;BME280;1095;50.992;6.798;2022-12-13T08:45:44;100476.31;;;-5.03;100.00
2178;BME280;1095;50.992;6.798;2022-12-13T08:48:11;100479.56;;;-4.99;100.00
2178;BME280;1095;50.992;6.798;2022-12-13T08:50:38;100469.56;;;-5.04;100.00
2178;BME280;1095;50.992;6.798;2022-12-13T08:53:05;100473.66;;;-4.99;100.00
2178;BME280;1095;50.992;6.798;2022-12-13T08:55:31;100471.88;;;-4.97;100.00
2178;BME280;1095;50.992;6.798;2022-12-13T08:58:03;100469.97;;;-4.92;100.00
2178;BME280;1095;50.992;6.798;2022-12-13T09:00:36;100482.66;;;-4.91;100.00
2178;BME280;1095;50.992;6.798;2022-12-13T09:03:04;100481.72;;;-4.88;100.00
2178;BME280;1095;50.992;6.798;2022-12-13T09:05:31;100475.72;;;-4.87;100.00
2178;BME280;1095;50.992;6.798;2022-12-13T09:07:59;100483.88;;;-4.79;100.00
2178;BME280;1095;50.992;6.798;2022-12-13T09:10:27;100482.81;;;-4.74;100.00
2178;BME280;1095;50.992;6.798;2022-12-13T09:12:54;100486.56;;;-4.62;100.00
2178;BME280;1095;50.992;6.798;2022-12-13T09:15:21;100487.44;;;-4.63;100.00
2178;BME280;1095;50.992;6.798;2022-12-13T09:17:48;100483.81;;;-4.57;100.00
2178;BME280;1095;50.992;6.798;2022-12-13T09:20:17;100483.63;;;-4.53;100.00
2178;BME280;1095;50.992;6.798;2022-12-13T09:22:43;100487.72;;;-4.49;100.00
2178;BME280;1095;50.992;6.798;2022-12-13T09:25:10;100482.22;;;-4.40;100.00
2178;BME280;1095;50.992;6.798;2022-12-13T09:27:37;100483.50;;;-4.29;100.00
2178;BME280;1095;50.992;6.798;2022-12-13T09:30:04;100486.25;;;-4.34;100.00
2178;BME280;1095;50.992;6.798;2022-12-13T09:32:32;100498.53;;;-4.23;100.00
2178;BME280;1095;50.992;6.798;2022-12-13T09:35:02;100499.69;;;-4.10;100.00
2178;BME280;1095;50.992;6.798;2022-12-13T09:37:30;100495.91;;;-4.02;100.00
2178;BME280;1095;50.992;6.798;2022-12-13T09:39:57;100487.25;;;-3.99;100.00
2178;BME280;1095;50.992;6.798;2022-12-13T09:42:25;100487.81;;;-3.92;100.00
2178;BME280;1095;50.992;6.798;2022-12-13T09:44:54;100494.72;;;-3.76;100.00
2178;BME280;1095;50.992;6.798;2022-12-13T09:47:28;100481.19;;;-3.78;99.76
2178;BME280;1095;50.992;6.798;2022-12-13T09:49:58;100484.09;;;-3.67;99.51
2178;BME280;1095;50.992;6.798;2022-12-13T09:52:27;100481.19;;;-3.59;99.55
2178;BME280;1095;50.992;6.798;2022-12-13T09:54:57;100489.00;;;-3.43;99.38
2178;BME280;1095;50.992;6.798;2022-12-13T09:57:26;100498.47;;;-3.45;99.16
2178;BME280;1095;50.992;6.798;2022-12-13T09:59:57;100492.25;;;-3.40;98.45
2178;BME280;1095;50.992;6.798;2022-12-13T10:02:28;100497.91;;;-3.33;98.28
2178;BME280;1095;50.992;6.798;2022-12-13T10:04:56;100490.38;;;-3.36;97.85
2178;BME280;1095;50.992;6.798;2022-12-13T10:07:35;100480.97;;;-3.36;97.93
2178;BME280;1095;50.992;6.798;2022-12-13T10:10:10;100468.88;;;-3.32;96.88
2178;BME280;1095;50.992;6.798;2022-12-13T10:12:39;100468.53;;;-3.26;96.71
2178;BME280;1095;50.992;6.798;2022-12-13T10:15:10;100457.47;;;-3.26;96.40
2178;BME280;1095;50.992;6.798;2022-12-13T10:17:39;100463.00;;;-3.17;96.28
2178;BME280;1095;50.992;6.798;2022-12-13T10:20:14;100452.41;;;-3.09;96.17
2178;BME280;1095;50.992;6.798;2022-12-13T10:22:42;100448.09;;;-3.09;96.03
2178;BME280;1095;50.992;6.798;2022-12-13T10:25:10;100447.06;;;-3.05;95.37
2178;BME280;1095;50.992;6.798;2022-12-13T10:27:38;100441.34;;;-2.92;95.47
2178;BME280;1095;50.992;6.798;2022-12-13T10:30:09;100431.09;;;-2.92;95.07
2178;BME280;1095;50.992;6.798;2022-12-13T10:32:46;100427.94;;;-2.97;93.78
2178;BME280;1095;50.992;6.798;2022-12-13T10:35:22;100434.56;;;-2.93;93.82
2178;BME280;1095;50.992;6.798;2022-12-13T10:37:49;100441.34;;;-2.92;93.66
2178;BME280;1095;50.992;6.798;2022-12-13T10:40:26;100420.88;;;-2.92;93.31
2178;BME280;1095;50.992;6.798;2022-12-13T10:43:06;100428.81;;;-2.81;93.17
2178;BME280;1095;50.992;6.798;2022-12-13T10:45:32;100418.91;;;-2.87;93.50
2178;BME280;1095;50.992;6.798;2022-12-13T10:48:01;100421.66;;;-2.75;93.04
2178;BME280;1095;50.992;6.798;2022-12-13T10:50:29;100414.81;;;-2.74;92.57
2178;BME280;1095;50.992;6.798;2022-12-13T10:52:57;100412.25;;;-2.57;92.86
2178;BME280;1095;50.992;6.798;2022-12-13T10:55:29;100410.94;;;-2.48;91.98
2178;BME280;1095;50.992;6.798;2022-12-13T10:57:59;100393.16;;;-2.51;91.51
2178;BME280;1095;50.992;6.798;2022-12-13T11:00:33;100395.59;;;-2.33;91.17
2178;BME280;1095;50.992;6.798;2022-12-13T11:03:01;100396.50;;;-2.34;90.50
2178;BME280;1095;50.992;6.798;2022-12-13T11:05:30;100388.81;;;-2.34;90.45
2178;BME280;1095;50.992;6.798;2022-12-13T11:08:11;100373.03;;;-2.26;90.60
2178;BME280;1095;50.992;6.798;2022-12-13T11:10:43;100387.25;;;-2.20;90.25
2178;BME280;1095;50.992;6.798;2022-12-13T11:13:22;100373.63;;;-2.21;89.58
2178;BME280;1095;50.992;6.798;2022-12-13T11:15:53;100379.41;;;-2.17;89.11
2178;BME280;1095;50.992;6.798;2022-12-13T11:18:22;100378.22;;;-2.27;88.82
2178;BME280;1095;50.992;6.798;2022-12-13T11:20:53;100379.56;;;-2.20;89.03
2178;BME280;1095;50.992;6.798;2022-12-13T11:23:26;100366.91;;;-2.23;88.63
2178;BME280;1095;50.992;6.798;2022-12-13T11:25:58;100364.63;;;-2.12;89.27
2178;BME280;1095;50.992;6.798;2022-12-13T11:28:38;100356.28;;;-2.00;88.82
2178;BME280;1095;50.992;6.798;2022-12-13T11:31:12;100351.88;;;-1.98;88.19
2178;BME280;1095;50.992;6.798;2022-12-13T11:33:49;100355.31;;;-1.83;88.05
2178;BME280;1095;50.992;6.798;2022-12-13T11:36:27;100351.59;;;-1.78;88.11
2178;BME280;1095;50.992;6.798;2022-12-13T11:39:05;100353.91;;;-1.73;87.87
2178;BME280;1095;50.992;6.798;2022-12-13T11:41:43;100359.88;;;-1.73;87.26
2178;BME280;1095;50.992;6.798;2022-12-13T11:44:16;100351.41;;;-1.59;87.31
2178;BME280;1095;50.992;6.798;2022-12-13T11:46:47;100346.78;;;-1.68;86.80
2178;BME280;1095;50.992;6.798;2022-12-13T11:49:19;100348.38;;;-1.65;86.87
2178;BME280;1095;50.992;6.798;2022-12-13T11:51:55;100346.53;;;-1.63;86.13
2178;BME280;1095;50.992;6.798;2022-12-13T11:54:27;100346.38;;;-1.60;85.78
2178;BME280;1095;50.992;6.798;2022-12-13T11:57:02;100342.72;;;-1.56;85.60
2178;BME280;1095;50.992;6.798;2022-12-13T11:59:35;100344.47;;;-1.57;85.72
2178;BME280;1095;50.992;6.798;2022-12-13T12:02:11;100352.47;;;-1.47;86.36
2178;BME280;1095;50.992;6.798;2022-12-13T12:04:45;100344.41;;;-1.41;85.69
2178;BME280;1095;50.992;6.798;2022-12-13T12:07:15;100339.00;;;-1.37;85.59
2178;BME280;1095;50.992;6.798;2022-12-13T12:09:48;100338.84;;;-1.34;85.94
2178;BME280;1095;50.992;6.798;2022-12-13T12:12:22;100324.44;;;-1.36;85.29
2178;BME280;1095;50.992;6.798;2022-12-13T12:14:53;100327.00;;;-1.36;85.14
2178;BME280;1095;50.992;6.798;2022-12-13T12:17:23;100321.69;;;-1.47;84.40
2178;BME280;1095;50.992;6.798;2022-12-13T12:19:52;100326.66;;;-1.44;84.24
2178;BME280;1095;50.992;6.798;2022-12-13T12:22:28;100339.66;;;-1.47;83.82
2178;BME280;1095;50.992;6.798;2022-12-13T12:25:19;100327.19;;;-1.39;83.84
2178;BME280;1095;50.992;6.798;2022-12-13T12:27:54;100327.38;;;-1.42;84.51
2178;BME280;1095;50.992;6.798;2022-12-13T12:30:37;100324.91;;;-1.44;84.32
2178;BME280;1095;50.992;6.798;2022-12-13T12:33:15;100316.56;;;-1.47;84.71
2178;BME280;1095;50.992;6.798;2022-12-13T12:36:03;100318.13;;;-1.45;84.52
2178;BME280;1095;50.992;6.798;2022-12-13T12:38:54;100303.72;;;-1.47;84.14
2178;BME280;1095;50.992;6.798;2022-12-13T12:41:32;100291.66;;;-1.61;84.06
2178;BME280;1095;50.992;6.798;2022-12-13T12:44:13;100306.19;;;-1.46;84.16
2178;BME280;1095;50.992;6.798;2022-12-13T12:46:52;100295.47;;;-1.52;83.63
2178;BME280;1095;50.992;6.798;2022-12-13T12:49:59;100296.75;;;-1.45;83.85
2178;BME280;1095;50.992;6.798;2022-12-13T12:52:36;100294.56;;;-1.37;84.07
2178;BME280;1095;50.992;6.798;2022-12-13T12:55:15;100278.72;;;-1.44;83.03
2178;BME280;1095;50.992;6.798;2022-12-13T12:57:53;100295.69;;;-1.27;82.93
2178;BME280;1095;50.992;6.798;2022-12-13T13:00:46;100287.72;;;-1.22;82.82
2178;BME280;1095;50.992;6.798;2022-12-13T13:03:20;100286.34;;;-1.14;82.72
2178;BME280;1095;50.992;6.798;2022-12-13T13:05:52;100276.09;;;-1.14;82.04
2178;BME280;1095;50.992;6.798;2022-12-13T13:08:23;100303.53;;;-1.00;82.01
2178;BME280;1095;50.992;6.798;2022-12-13T13:10:52;100299.75;;;-1.09;81.35
2178;BME280;1095;50.992;6.798;2022-12-13T13:13:43;100300.13;;;-1.15;81.13
2178;BME280;1095;50.992;6.798;2022-12-13T13:16:33;100286.34;;;-1.14;81.36
2178;BME280;1095;50.992;6.798;2022-12-13T13:19:04;100286.53;;;-1.17;80.59
2178;BME280;1095;50.992;6.798;2022-12-13T13:21:41;100291.31;;;-1.11;80.94
2178;BME280;1095;50.992;6.798;2022-12-13T13:24:23;100303.25;;;-1.10;80.63
2178;BME280;1095;50.992;6.798;2022-12-13T13:26:52;100302.41;;;-1.10;81.05